Terminal Aerodrome Forecast
Issued by NWS Jackson, KY

Home | Current Version | Previous Version | Text Only | Print | Product List | Glossary On
Versions: 1 2 3 4 5 6 7 8 9 10 11 12 13 14 15 16 17 18 19 20
000
FTUS43 KJKL 201700 RRA
TAFLOZ
TAF
KLOZ 201744Z 2018/2118 VRB03KT P6SM SCT025 BKN035
     FM210300 00000KT 3SM BR SCT040
     FM210800 00000KT 1/2SM FG BKN003
     FM211500 VRB03KT P6SM SCT050=

USA.gov is the U.S. government's official web portal to all federal, state and local government web resources and services.